sensor_id;sensor_type;location;lat;lon;timestamp;P1;durP1;ratioP1;P2;durP2;ratioP2
62693;SDS011;48759;52.544;13.418;2023-04-08T00:08:22;22.57;;;14.00;;
62693;SDS011;48759;52.544;13.418;2023-04-08T00:11:36;23.00;;;14.13;;
62693;SDS011;48759;52.544;13.418;2023-04-08T00:14:18;21.57;;;14.80;;
62693;SDS011;48759;52.544;13.418;2023-04-08T00:17:04;23.73;;;13.80;;
62693;SDS011;48759;52.544;13.418;2023-04-08T00:22:35;24.57;;;12.60;;
62693;SDS011;48759;52.544;13.418;2023-04-08T00:25:33;23.40;;;14.63;;
62693;SDS011;48759;52.544;13.418;2023-04-08T00:28:18;24.90;;;14.70;;
62693;SDS011;48759;52.544;13.418;2023-04-08T00:31:10;29.33;;;16.87;;
62693;SDS011;48759;52.544;13.418;2023-04-08T00:33:59;29.53;;;17.00;;
62693;SDS011;48759;52.544;13.418;2023-04-08T00:36:29;25.83;;;16.57;;
62693;SDS011;48759;52.544;13.418;2023-04-08T00:50:06;31.37;;;17.00;;
62693;SDS011;48759;52.544;13.418;2023-04-08T00:53:03;33.90;;;18.47;;
62693;SDS011;48759;52.544;13.418;2023-04-08T00:55:52;35.20;;;17.70;;
62693;SDS011;48759;52.544;13.418;2023-04-08T00:59:06;40.33;;;18.40;;
62693;SDS011;48759;52.544;13.418;2023-04-08T01:01:53;37.37;;;19.20;;
62693;SDS011;48759;52.544;13.418;2023-04-08T01:08:17;38.53;;;19.50;;
62693;SDS011;48759;52.544;13.418;2023-04-08T01:11:11;35.67;;;19.93;;
62693;SDS011;48759;52.544;13.418;2023-04-08T01:14:03;41.83;;;20.10;;
62693;SDS011;48759;52.544;13.418;2023-04-08T01:16:47;37.33;;;19.67;;
62693;SDS011;48759;52.544;13.418;2023-04-08T01:19:20;39.90;;;21.40;;
62693;SDS011;48759;52.544;13.418;2023-04-08T01:21:58;40.87;;;19.40;;
62693;SDS011;48759;52.544;13.418;2023-04-08T01:27:56;44.13;;;21.83;;
62693;SDS011;48759;52.544;13.418;2023-04-08T01:30:33;41.83;;;20.77;;
62693;SDS011;48759;52.544;13.418;2023-04-08T01:33:27;43.50;;;20.57;;
62693;SDS011;48759;52.544;13.418;2023-04-08T01:36:02;43.10;;;20.40;;
62693;SDS011;48759;52.544;13.418;2023-04-08T01:38:54;38.37;;;20.93;;
62693;SDS011;48759;52.544;13.418;2023-04-08T01:41:46;36.27;;;19.70;;
62693;SDS011;48759;52.544;13.418;2023-04-08T01:44:32;41.20;;;21.93;;
62693;SDS011;48759;52.544;13.418;2023-04-08T01:47:15;36.20;;;18.63;;
62693;SDS011;48759;52.544;13.418;2023-04-08T01:50:01;44.13;;;20.37;;
62693;SDS011;48759;52.544;13.418;2023-04-08T01:52:51;36.20;;;20.30;;
62693;SDS011;48759;52.544;13.418;2023-04-08T01:55:43;38.40;;;18.70;;
62693;SDS011;48759;52.544;13.418;2023-04-08T01:58:27;39.73;;;19.33;;
62693;SDS011;48759;52.544;13.418;2023-04-08T02:11:08;43.93;;;20.37;;
62693;SDS011;48759;52.544;13.418;2023-04-08T02:13:45;42.47;;;20.53;;
62693;SDS011;48759;52.544;13.418;2023-04-08T02:16:27;37.03;;;19.40;;
62693;SDS011;48759;52.544;13.418;2023-04-08T02:19:23;37.43;;;20.57;;
62693;SDS011;48759;52.544;13.418;2023-04-08T02:22:04;41.77;;;21.30;;
62693;SDS011;48759;52.544;13.418;2023-04-08T02:24:52;42.63;;;19.47;;
62693;SDS011;48759;52.544;13.418;2023-04-08T02:27:25;36.90;;;20.00;;
62693;SDS011;48759;52.544;13.418;2023-04-08T02:30:08;41.90;;;19.10;;
62693;SDS011;48759;52.544;13.418;2023-04-08T02:32:56;32.90;;;18.17;;
62693;SDS011;48759;52.544;13.418;2023-04-08T02:35:37;35.70;;;17.60;;
62693;SDS011;48759;52.544;13.418;2023-04-08T02:38:24;31.97;;;20.50;;
62693;SDS011;48759;52.544;13.418;2023-04-08T02:41:01;34.57;;;17.90;;
62693;SDS011;48759;52.544;13.418;2023-04-08T02:43:42;36.80;;;19.30;;
62693;SDS011;48759;52.544;13.418;2023-04-08T02:46:37;38.53;;;20.20;;
62693;SDS011;48759;52.544;13.418;2023-04-08T02:49:34;36.10;;;18.70;;
62693;SDS011;48759;52.544;13.418;2023-04-08T02:52:31;42.00;;;20.43;;
62693;SDS011;48759;52.544;13.418;2023-04-08T02:58:17;43.30;;;20.47;;
62693;SDS011;48759;52.544;13.418;2023-04-08T03:01:16;39.10;;;21.17;;
62693;SDS011;48759;52.544;13.418;2023-04-08T03:04:07;37.50;;;18.77;;
62693;SDS011;48759;52.544;13.418;2023-04-08T03:06:48;35.60;;;19.30;;
62693;SDS011;48759;52.544;13.418;2023-04-08T03:09:30;37.43;;;20.10;;
62693;SDS011;48759;52.544;13.418;2023-04-08T03:11:59;34.40;;;18.73;;
62693;SDS011;48759;52.544;13.418;2023-04-08T03:23:29;39.37;;;19.80;;
62693;SDS011;48759;52.544;13.418;2023-04-08T03:26:00;45.50;;;21.37;;
62693;SDS011;48759;52.544;13.418;2023-04-08T03:28:33;38.50;;;19.80;;
62693;SDS011;48759;52.544;13.418;2023-04-08T03:31:17;39.40;;;19.73;;
62693;SDS011;48759;52.544;13.418;2023-04-08T03:33:49;47.83;;;20.77;;
62693;SDS011;48759;52.544;13.418;2023-04-08T03:36:51;40.93;;;21.13;;
62693;SDS011;48759;52.544;13.418;2023-04-08T03:39:31;46.83;;;21.80;;
62693;SDS011;48759;52.544;13.418;2023-04-08T03:42:08;35.60;;;20.30;;
62693;SDS011;48759;52.544;13.418;2023-04-08T03:44:50;45.00;;;19.57;;
62693;SDS011;48759;52.544;13.418;2023-04-08T03:47:19;42.93;;;21.87;;
62693;SDS011;48759;52.544;13.418;2023-04-08T03:49:55;50.77;;;21.83;;
62693;SDS011;48759;52.544;13.418;2023-04-08T03:52:43;39.10;;;20.10;;
62693;SDS011;48759;52.544;13.418;2023-04-08T03:55:19;40.63;;;22.50;;
62693;SDS011;48759;52.544;13.418;2023-04-08T03:57:59;42.07;;;19.37;;
62693;SDS011;48759;52.544;13.418;2023-04-08T04:01:03;39.23;;;20.30;;
62693;SDS011;48759;52.544;13.418;2023-04-08T04:03:35;51.57;;;22.20;;
62693;SDS011;48759;52.544;13.418;2023-04-08T04:06:12;43.53;;;20.50;;
62693;SDS011;48759;52.544;13.418;2023-04-08T04:09:23;42.53;;;19.53;;
62693;SDS011;48759;52.544;13.418;2023-04-08T04:12:12;49.07;;;22.13;;
62693;SDS011;48759;52.544;13.418;2023-04-08T04:14:46;38.80;;;21.67;;
62693;SDS011;48759;52.544;13.418;2023-04-08T04:17:25;48.57;;;21.50;;
62693;SDS011;48759;52.544;13.418;2023-04-08T04:19:54;39.83;;;20.63;;
62693;SDS011;48759;52.544;13.418;2023-04-08T04:22:26;43.87;;;21.67;;
62693;SDS011;48759;52.544;13.418;2023-04-08T04:28:30;43.00;;;20.20;;
62693;SDS011;48759;52.544;13.418;2023-04-08T04:31:49;41.70;;;20.30;;
62693;SDS011;48759;52.544;13.418;2023-04-08T04:34:50;42.60;;;20.40;;
62693;SDS011;48759;52.544;13.418;2023-04-08T04:37:33;40.63;;;20.47;;
62693;SDS011;48759;52.544;13.418;2023-04-08T04:40:18;37.50;;;20.23;;
62693;SDS011;48759;52.544;13.418;2023-04-08T04:46:29;38.63;;;19.43;;
62693;SDS011;48759;52.544;13.418;2023-04-08T04:52:29;42.63;;;21.43;;
62693;SDS011;48759;52.544;13.418;2023-04-08T04:58:10;39.27;;;19.23;;
62693;SDS011;48759;52.544;13.418;2023-04-08T05:00:48;43.73;;;20.10;;
62693;SDS011;48759;52.544;13.418;2023-04-08T05:03:19;42.73;;;22.10;;
62693;SDS011;48759;52.544;13.418;2023-04-08T05:05:58;39.63;;;20.27;;
62693;SDS011;48759;52.544;13.418;2023-04-08T05:08:51;37.70;;;20.83;;
62693;SDS011;48759;52.544;13.418;2023-04-08T05:11:26;40.27;;;21.37;;
62693;SDS011;48759;52.544;13.418;2023-04-08T05:14:02;44.40;;;21.40;;
62693;SDS011;48759;52.544;13.418;2023-04-08T05:19:02;42.27;;;23.17;;
62693;SDS011;48759;52.544;13.418;2023-04-08T05:21:41;44.73;;;22.37;;
62693;SDS011;48759;52.544;13.418;2023-04-08T05:24:30;47.53;;;22.37;;
